Terminal Aerodrome Forecast
Issued by NWS Duluth, MN

Home | Current Version | Previous Version | Text Only | Print | Product List | Glossary On
Versions: 1 2 3 4 5 6 7 8 9 10 11 12 13 14 15 16 17 18 19 20 21 22 23 24 25 26
000
FTUS43 KDLH 300500
TAFINL
TAF
KINL 300532Z 3006/3106 00000KT P6SM SKC
     FM301600 19007KT P6SM OVC040
     FM301800 18012G20KT 4SM -SHSN OVC025
      TEMPO 3019/3023 1SM -SHSN OVC010
     FM310400 28008KT 4SM -SHSN OVC020=

USA.gov is the U.S. government's official web portal to all federal, state and local government web resources and services.